Terminal Aerodrome Forecast
Issued by NWS

Home | Current Version | Previous Version | Graphics & Text | Print | Product List | Glossary On
Versions: 1 2 3 4 5 6 7 8 9 10 11 12
000
FTUS42 KMHX 212300
TAFPGV
TAF
KPGV 212325Z 2200/2224 31003KT P6SM BKN080
     FM221300 30008KT P6SM SCT050
     FM221600 32012G20KT P6SM BKN050
     FM222300 34005KT P6SM SKC
      AMD LTD TO CLD VIS AND WIND=

USA.gov is the U.S. government's official web portal to all federal, state and local government web resources and services.